Archival Weather

Phoenix Goodyear

Goodyear, Arizona (KGYR)

Report from: Wednesday, December 6, 2023 2:47 PM MST
Current time: Wednesday, April 24, 2024 12:16 PM MST

Current weather – Weather history – Daily summaries
Weather forecast

Temperature27.0°C (80.6°F)
Heat index26.3°C (79.3°F)
Dew point0.0°C (32.0°F)
Winds 5 kts (2.6 m/s, 5.8 mph) Vrb
Winds variableWinds variable
Visibility10 mi. (16.1 km)
Clouds Few clouds 25,000 ft. (7,620 m)
Altimeter30.00 in.Hg (1016 mB)
Relative humidity17 %
Density altitude1,392 ft. (424 m)
Flight conditions Visual Meteorological Conditions
Raw dataKGYR 062147Z VRB05KT 10SM FEW250 27/00 A3000
An error has occurred. This application may no longer respond until reloaded. Reload 🗙